This is the latest recevied weather packets stored in our database for station/object OE6JUE. If no packets are shown the sender has not sent any weather packets the latest 10 day(s).
| Time | Temp. | Humidity | Pressure | Rain* | Wind** | Luminosity | Snow |
|---|---|---|---|---|---|---|---|
| 1778081176 | 20° C | 55% | 1010 hPa | 0 mm | - | - | - |
| 1778080875 | 20° C | 54% | 1009.9 hPa | 0 mm | - | - | - |
| 1778080575 | 20° C | 54% | 1010.1 hPa | 0 mm | - | - | - |
| 1778080276 | 20° C | 54% | 1010.1 hPa | 0 mm | - | - | - |
| 1778079975 | 19.44° C | 54% | 1010.2 hPa | 0 mm | - | - | - |
| 1778079676 | 20° C | 54% | 1009.9 hPa | - | - | - | - |
| 1778079376 | 20° C | 53% | 1010 hPa | 0 mm | - | - | - |
| 1778079075 | 20° C | 54% | 1009.9 hPa | 0 mm | - | - | - |
| 1778078776 | 20° C | 53% | 1010 hPa | 0 mm | - | - | - |
| 1778078475 | 20° C | 53% | 1009.9 hPa | 0 mm | - | - | - |
| 1778078176 | 20.56° C | 52% | 1010.1 hPa | 0 mm | - | - | - |
| 1778077876 | 21.11° C | 50% | 1010 hPa | 0 mm | - | - | - |
| 1778077576 | 21.67° C | 50% | 1009.9 hPa | 0 mm | - | - | - |
| 1778077276 | 21.67° C | 51% | 1009.9 hPa | 0 mm | - | - | - |
| 1778076975 | 21.11° C | 50% | 1009.9 hPa | 0 mm | - | - | - |
| 1778076676 | 21.67° C | 50% | 1009.8 hPa | 0 mm | - | - | - |
| 1778076375 | 21.67° C | 50% | 1009.9 hPa | 0 mm | - | - | - |
| 1778076075 | 21.67° C | 49% | 1010 hPa | - | - | - | - |
| 1778075775 | 22.22° C | 48% | 1010 hPa | 0 mm | - | - | - |
| 1778075476 | 21.67° C | 50% | 1010.2 hPa | 0 mm | - | - | - |
| 1778075156 | 21.67° C | 49% | 1010.1 hPa | 0 mm | - | - | - |
| 1778074857 | 21.67° C | 47% | 1010.1 hPa | 0 mm | - | - | - |
| 1778074557 | 22.78° C | 44% | 1009.9 hPa | 0 mm | - | - | - |
| 1778074256 | 22.22° C | 46% | 1009.9 hPa | 0 mm | - | - | - |
| 1778073956 | 22.78° C | 43% | 1010 hPa | 0 mm | - | - | - |
* Rain latest hour (hover to see other rain measurements)
** Current wind speed in m/s (hover to see current wind gust speed)